AFR26AP LFMN-LFPG
Flight info
| Callsign | AFR26AP |
|---|---|
| Flight time | 1h 16m |
| Altitude | 32000 |
| Route | OKTET DCT GIPNO DCT LOGNI DCT MOKIP DCT ARFOZ DCT TINIL |
| Aircraft | A320/M-SDE2E3FGIJ1RWY/HB1 |
Departure
| Time | 2026-05-05 06:37 |
|---|---|
| Airport | Nice-Côte d'Azur Airport (LFMN) |
Arrival
| Time | 2026-05-05 07:53 |
|---|---|
| Airport | Charles de Gaulle International Airport (LFPG) |
| Time | Latitude | Longitude | Altitude | Speed | Heading |
|---|---|---|---|---|---|
| 2026-05-05 06:08 | 43.66119 | 7.20685 | 22 ft | 0 kts | 261° |
| 2026-05-05 06:25 | 43.66119 | 7.20687 | 22 ft | 2 kts | 261° |
| 2026-05-05 06:25 | 43.66123 | 7.20721 | 22 ft | 4 kts | 261° |
| 2026-05-05 06:25 | 43.66127 | 7.20757 | 23 ft | 4 kts | 246° |
| 2026-05-05 06:25 | 43.66142 | 7.20783 | 23 ft | 4 kts | 198° |
| 2026-05-05 06:26 | 43.66160 | 7.20786 | 22 ft | 1 kts | 171° |
| 2026-05-05 06:26 | 43.66163 | 7.20785 | 22 ft | 0 kts | 171° |
| 2026-05-05 06:31 | 43.66155 | 7.20787 | 24 ft | 8 kts | 171° |
| 2026-05-05 06:31 | 43.66082 | 7.20803 | 22 ft | 11 kts | 171° |
| 2026-05-05 06:31 | 43.66001 | 7.20821 | 23 ft | 15 kts | 171° |
| 2026-05-05 06:31 | 43.65893 | 7.20844 | 22 ft | 15 kts | 171° |
| 2026-05-05 06:32 | 43.65788 | 7.20867 | 22 ft | 15 kts | 171° |
| 2026-05-05 06:32 | 43.65689 | 7.20891 | 22 ft | 14 kts | 169° |
| 2026-05-05 06:32 | 43.65622 | 7.20907 | 22 ft | 16 kts | 171° |
| 2026-05-05 06:32 | 43.65507 | 7.20932 | 22 ft | 18 kts | 172° |
| 2026-05-05 06:33 | 43.65370 | 7.20954 | 22 ft | 20 kts | 186° |
| 2026-05-05 06:33 | 43.65261 | 7.20830 | 22 ft | 21 kts | 224° |
| 2026-05-05 06:33 | 43.65150 | 7.20682 | 22 ft | 23 kts | 225° |
| 2026-05-05 06:33 | 43.65031 | 7.20520 | 22 ft | 25 kts | 224° |
| 2026-05-05 06:34 | 43.64916 | 7.20363 | 22 ft | 19 kts | 225° |
| 2026-05-05 06:34 | 43.64829 | 7.20244 | 22 ft | 16 kts | 225° |
| 2026-05-05 06:34 | 43.64763 | 7.20188 | 22 ft | 7 kts | 181° |
| 2026-05-05 06:34 | 43.64762 | 7.20188 | 22 ft | 0 kts | 180° |
| 2026-05-05 06:36 | 43.64750 | 7.20193 | 22 ft | 6 kts | 161° |
| 2026-05-05 06:36 | 43.64702 | 7.20251 | 22 ft | 10 kts | 131° |
| 2026-05-05 06:36 | 43.64719 | 7.20314 | 23 ft | 8 kts | 46° |
| 2026-05-05 06:36 | 43.64872 | 7.20524 | 22 ft | 68 kts | 45° |
| 2026-05-05 06:37 | 43.65372 | 7.21212 | 25 ft | 132 kts | 45° |
| 2026-05-05 06:37 | 43.66130 | 7.22247 | 264 ft | 159 kts | 44° |
| 2026-05-05 06:37 | 43.66788 | 7.23461 | 979 ft | 161 kts | 76° |
| 2026-05-05 06:37 | 43.66658 | 7.24954 | 1664 ft | 164 kts | 119° |
| 2026-05-05 06:38 | 43.65895 | 7.26118 | 2372 ft | 164 kts | 136° |
| 2026-05-05 06:38 | 43.65070 | 7.27198 | 3053 ft | 163 kts | 136° |
| 2026-05-05 06:38 | 43.64226 | 7.28310 | 3540 ft | 177 kts | 136° |
| 2026-05-05 06:38 | 43.63282 | 7.29555 | 3866 ft | 199 kts | 136° |
| 2026-05-05 06:39 | 43.62218 | 7.30953 | 4229 ft | 220 kts | 140° |
| 2026-05-05 06:39 | 43.60846 | 7.31846 | 4960 ft | 223 kts | 177° |
| 2026-05-05 06:39 | 43.59359 | 7.31347 | 5733 ft | 223 kts | 212° |
| 2026-05-05 06:39 | 43.58048 | 7.30234 | 6638 ft | 221 kts | 214° |
| 2026-05-05 06:40 | 43.56748 | 7.29105 | 7470 ft | 222 kts | 214° |
| 2026-05-05 06:40 | 43.55545 | 7.27786 | 8265 ft | 222 kts | 233° |
| 2026-05-05 06:40 | 43.54897 | 7.25864 | 9076 ft | 225 kts | 259° |
| 2026-05-05 06:40 | 43.55000 | 7.23702 | 9870 ft | 232 kts | 287° |
| 2026-05-05 06:41 | 43.55847 | 7.21773 | 10600 ft | 240 kts | 303° |
| 2026-05-05 06:41 | 43.56886 | 7.19957 | 11358 ft | 242 kts | 303° |
| 2026-05-05 06:41 | 43.57938 | 7.18126 | 12113 ft | 245 kts | 303° |
| 2026-05-05 06:41 | 43.59002 | 7.16273 | 12869 ft | 248 kts | 303° |
| 2026-05-05 06:42 | 43.60064 | 7.14415 | 13626 ft | 251 kts | 302° |
| 2026-05-05 06:42 | 43.61202 | 7.12560 | 14304 ft | 258 kts | 311° |
| 2026-05-05 06:42 | 43.62624 | 7.10868 | 14576 ft | 282 kts | 314° |
| 2026-05-05 06:42 | 43.64197 | 7.09059 | 14774 ft | 306 kts | 315° |
| 2026-05-05 06:43 | 43.65903 | 7.07112 | 14934 ft | 329 kts | 316° |
| 2026-05-05 06:43 | 43.67730 | 7.05039 | 15143 ft | 349 kts | 316° |
| 2026-05-05 06:43 | 43.69639 | 7.02882 | 15690 ft | 358 kts | 316° |
| 2026-05-05 06:43 | 43.71576 | 7.00689 | 16334 ft | 363 kts | 316° |
| 2026-05-05 06:44 | 43.73540 | 6.98456 | 16985 ft | 368 kts | 315° |
| 2026-05-05 06:44 | 43.75528 | 6.96189 | 17607 ft | 372 kts | 315° |
| 2026-05-05 06:44 | 43.77537 | 6.93889 | 18197 ft | 377 kts | 315° |
| 2026-05-05 06:44 | 43.79562 | 6.91565 | 18741 ft | 380 kts | 315° |
| 2026-05-05 06:45 | 43.81605 | 6.89217 | 19344 ft | 383 kts | 315° |
| 2026-05-05 06:45 | 43.83662 | 6.86852 | 19923 ft | 386 kts | 315° |
| 2026-05-05 06:45 | 43.85735 | 6.84463 | 20515 ft | 389 kts | 315° |
| 2026-05-05 06:45 | 43.87798 | 6.82085 | 21153 ft | 391 kts | 315° |
| 2026-05-05 06:46 | 43.89899 | 6.79662 | 21773 ft | 394 kts | 315° |
| 2026-05-05 06:46 | 43.92037 | 6.77253 | 22369 ft | 399 kts | 319° |
| 2026-05-05 06:46 | 43.94434 | 6.75240 | 22948 ft | 408 kts | 329° |
| 2026-05-05 06:46 | 43.97113 | 6.73829 | 23504 ft | 417 kts | 340° |
| 2026-05-05 06:47 | 43.99953 | 6.72888 | 23969 ft | 421 kts | 342° |
| 2026-05-05 06:47 | 44.02813 | 6.71965 | 24418 ft | 423 kts | 342° |
| 2026-05-05 06:47 | 44.05692 | 6.71033 | 24842 ft | 427 kts | 343° |
| 2026-05-05 06:47 | 44.08604 | 6.70085 | 25267 ft | 430 kts | 343° |
| 2026-05-05 06:48 | 44.11524 | 6.69132 | 25670 ft | 433 kts | 342° |
| 2026-05-05 06:48 | 44.14465 | 6.68169 | 26081 ft | 435 kts | 342° |
| 2026-05-05 06:48 | 44.17417 | 6.67201 | 26511 ft | 438 kts | 342° |
| 2026-05-05 06:48 | 44.20393 | 6.66224 | 26884 ft | 440 kts | 342° |
| 2026-05-05 06:49 | 44.23387 | 6.65237 | 27308 ft | 443 kts | 342° |
| 2026-05-05 06:49 | 44.26356 | 6.64260 | 27686 ft | 446 kts | 343° |
| 2026-05-05 06:49 | 44.29393 | 6.63265 | 28101 ft | 449 kts | 343° |
| 2026-05-05 06:49 | 44.32448 | 6.62265 | 28486 ft | 451 kts | 343° |
| 2026-05-05 06:50 | 44.35513 | 6.61259 | 28836 ft | 454 kts | 342° |
| 2026-05-05 06:50 | 44.38594 | 6.60237 | 29216 ft | 456 kts | 342° |
| 2026-05-05 06:50 | 44.41689 | 6.59209 | 29582 ft | 459 kts | 342° |
| 2026-05-05 06:50 | 44.44803 | 6.58173 | 29908 ft | 462 kts | 342° |
| 2026-05-05 06:51 | 44.47858 | 6.56781 | 30170 ft | 461 kts | 333° |
| 2026-05-05 06:51 | 44.50722 | 6.54793 | 30443 ft | 458 kts | 325° |
| 2026-05-05 06:51 | 44.53382 | 6.52343 | 30734 ft | 458 kts | 321° |
| 2026-05-05 06:51 | 44.56025 | 6.49827 | 31015 ft | 460 kts | 321° |
| 2026-05-05 06:52 | 44.58675 | 6.47306 | 31294 ft | 461 kts | 321° |
| 2026-05-05 06:52 | 44.61342 | 6.44770 | 31583 ft | 463 kts | 321° |
| 2026-05-05 06:52 | 44.64010 | 6.42236 | 31884 ft | 463 kts | 321° |
| 2026-05-05 06:53 | 44.69203 | 6.37305 | 31959 ft | 441 kts | 321° |
| 2026-05-05 06:53 | 44.74222 | 6.32517 | 31956 ft | 433 kts | 320° |
| 2026-05-05 06:54 | 44.79192 | 6.27746 | 31956 ft | 432 kts | 321° |
| 2026-05-05 06:54 | 44.84159 | 6.22976 | 31940 ft | 432 kts | 321° |
| 2026-05-05 06:55 | 44.89127 | 6.18193 | 31935 ft | 432 kts | 321° |
| 2026-05-05 06:55 | 44.94093 | 6.13408 | 31929 ft | 432 kts | 321° |
| 2026-05-05 06:56 | 44.99067 | 6.08618 | 31931 ft | 432 kts | 321° |
| 2026-05-05 06:56 | 45.04006 | 6.03836 | 31920 ft | 433 kts | 321° |
| 2026-05-05 06:57 | 45.08988 | 5.98996 | 31905 ft | 435 kts | 321° |
| 2026-05-05 06:57 | 45.13983 | 5.94151 | 31891 ft | 435 kts | 321° |
| 2026-05-05 06:58 | 45.18970 | 5.89304 | 31889 ft | 434 kts | 321° |
| 2026-05-05 06:58 | 45.23952 | 5.84440 | 31894 ft | 435 kts | 321° |
| 2026-05-05 06:59 | 45.28917 | 5.79583 | 31922 ft | 436 kts | 321° |
| 2026-05-05 06:59 | 45.33922 | 5.74687 | 31902 ft | 437 kts | 321° |
| 2026-05-05 07:00 | 45.38926 | 5.69764 | 31896 ft | 437 kts | 321° |
| 2026-05-05 07:00 | 45.43941 | 5.64821 | 31896 ft | 438 kts | 321° |
| 2026-05-05 07:01 | 45.48959 | 5.59868 | 31894 ft | 439 kts | 322° |
| 2026-05-05 07:01 | 45.53963 | 5.54930 | 31892 ft | 440 kts | 322° |
| 2026-05-05 07:02 | 45.59374 | 5.50770 | 31896 ft | 445 kts | 333° |
| 2026-05-05 07:02 | 45.65046 | 5.47208 | 31916 ft | 445 kts | 334° |
| 2026-05-05 07:03 | 45.70729 | 5.43620 | 31891 ft | 446 kts | 333° |
| 2026-05-05 07:03 | 45.76399 | 5.40011 | 31883 ft | 446 kts | 333° |
| 2026-05-05 07:04 | 45.82073 | 5.36403 | 31885 ft | 446 kts | 333° |
| 2026-05-05 07:04 | 45.87722 | 5.32807 | 31864 ft | 447 kts | 334° |
| 2026-05-05 07:05 | 45.93411 | 5.29168 | 31863 ft | 448 kts | 334° |
| 2026-05-05 07:05 | 45.99110 | 5.25516 | 31865 ft | 449 kts | 334° |
| 2026-05-05 07:06 | 46.04814 | 5.21863 | 31868 ft | 449 kts | 334° |
| 2026-05-05 07:06 | 46.10530 | 5.18189 | 31849 ft | 450 kts | 334° |
| 2026-05-05 07:07 | 46.16253 | 5.14487 | 31895 ft | 451 kts | 334° |
| 2026-05-05 07:07 | 46.22011 | 5.10889 | 31893 ft | 451 kts | 340° |
| 2026-05-05 07:08 | 46.28169 | 5.09305 | 31873 ft | 452 kts | 359° |
| 2026-05-05 07:08 | 46.34470 | 5.09336 | 31859 ft | 452 kts | 0° |
| 2026-05-05 07:09 | 46.40726 | 5.09360 | 31857 ft | 452 kts | 0° |
| 2026-05-05 07:09 | 46.47029 | 5.09379 | 31857 ft | 453 kts | 0° |
| 2026-05-05 07:10 | 46.53343 | 5.09398 | 31851 ft | 454 kts | 0° |
| 2026-05-05 07:10 | 46.59681 | 5.09420 | 31854 ft | 455 kts | 1° |
| 2026-05-05 07:11 | 46.66031 | 5.09450 | 31855 ft | 456 kts | 1° |
| 2026-05-05 07:11 | 46.72384 | 5.09483 | 31859 ft | 456 kts | 1° |
| 2026-05-05 07:12 | 46.78747 | 5.09519 | 31866 ft | 457 kts | 0° |
| 2026-05-05 07:12 | 46.85070 | 5.09540 | 31871 ft | 457 kts | 0° |
| 2026-05-05 07:13 | 46.91427 | 5.09551 | 31868 ft | 457 kts | 0° |
| 2026-05-05 07:13 | 46.97794 | 5.09573 | 31868 ft | 457 kts | 1° |
| 2026-05-05 07:14 | 47.04166 | 5.09610 | 31867 ft | 458 kts | 1° |
| 2026-05-05 07:14 | 47.10539 | 5.09637 | 31859 ft | 458 kts | 0° |
| 2026-05-05 07:15 | 47.16884 | 5.09657 | 31869 ft | 458 kts | 0° |
| 2026-05-05 07:15 | 47.23270 | 5.09691 | 31871 ft | 459 kts | 0° |
| 2026-05-05 07:16 | 47.29659 | 5.09730 | 31870 ft | 459 kts | 0° |
| 2026-05-05 07:16 | 47.36055 | 5.09761 | 31871 ft | 459 kts | 0° |
| 2026-05-05 07:17 | 47.42446 | 5.09788 | 31871 ft | 459 kts | 0° |
| 2026-05-05 07:17 | 47.48801 | 5.09815 | 31874 ft | 460 kts | 0° |
| 2026-05-05 07:18 | 47.55182 | 5.09450 | 31474 ft | 453 kts | 349° |
| 2026-05-05 07:18 | 47.58217 | 5.08317 | 30960 ft | 448 kts | 338° |
| 2026-05-05 07:18 | 47.61049 | 5.06455 | 30462 ft | 442 kts | 327° |
| 2026-05-05 07:18 | 47.63594 | 5.03962 | 29963 ft | 436 kts | 317° |
| 2026-05-05 07:19 | 47.65126 | 5.02056 | 29612 ft | 433 kts | 315° |
| 2026-05-05 07:19 | 47.68158 | 4.98234 | 28972 ft | 429 kts | 315° |
| 2026-05-05 07:19 | 47.69693 | 4.96307 | 28656 ft | 426 kts | 315° |
| 2026-05-05 07:19 | 47.71946 | 4.93479 | 28211 ft | 422 kts | 316° |
| 2026-05-05 07:20 | 47.74898 | 4.89775 | 27663 ft | 416 kts | 316° |
| 2026-05-05 07:20 | 47.76391 | 4.87895 | 27521 ft | 415 kts | 316° |
| 2026-05-05 07:20 | 47.78588 | 4.85114 | 27239 ft | 413 kts | 315° |
| 2026-05-05 07:20 | 47.80742 | 4.82378 | 26966 ft | 411 kts | 315° |
| 2026-05-05 07:21 | 47.82913 | 4.79619 | 26694 ft | 408 kts | 316° |
| 2026-05-05 07:21 | 47.85067 | 4.76881 | 26420 ft | 406 kts | 316° |
| 2026-05-05 07:21 | 47.87205 | 4.74156 | 26148 ft | 403 kts | 316° |
| 2026-05-05 07:21 | 47.89334 | 4.71439 | 25875 ft | 401 kts | 316° |
| 2026-05-05 07:22 | 47.91446 | 4.68743 | 25608 ft | 399 kts | 316° |
| 2026-05-05 07:22 | 47.93549 | 4.66056 | 25358 ft | 396 kts | 316° |
| 2026-05-05 07:22 | 47.95630 | 4.63395 | 25083 ft | 392 kts | 317° |
| 2026-05-05 07:22 | 47.97693 | 4.60754 | 24819 ft | 389 kts | 317° |
| 2026-05-05 07:23 | 47.99741 | 4.58128 | 24548 ft | 387 kts | 317° |
| 2026-05-05 07:23 | 48.01778 | 4.55515 | 24299 ft | 385 kts | 317° |
| 2026-05-05 07:23 | 48.03805 | 4.52912 | 24041 ft | 382 kts | 317° |
| 2026-05-05 07:23 | 48.05814 | 4.50326 | 23788 ft | 380 kts | 317° |
| 2026-05-05 07:24 | 48.07788 | 4.47782 | 23534 ft | 378 kts | 317° |
| 2026-05-05 07:24 | 48.09776 | 4.45218 | 23258 ft | 376 kts | 317° |
| 2026-05-05 07:24 | 48.11757 | 4.42660 | 23003 ft | 375 kts | 317° |
| 2026-05-05 07:24 | 48.13730 | 4.40110 | 22751 ft | 374 kts | 318° |
| 2026-05-05 07:25 | 48.15699 | 4.37564 | 22500 ft | 374 kts | 318° |
| 2026-05-05 07:25 | 48.17666 | 4.35017 | 22251 ft | 373 kts | 318° |
| 2026-05-05 07:25 | 48.19626 | 4.32475 | 21999 ft | 372 kts | 318° |
| 2026-05-05 07:25 | 48.21581 | 4.29937 | 21748 ft | 371 kts | 318° |
| 2026-05-05 07:26 | 48.23526 | 4.27411 | 21505 ft | 369 kts | 318° |
| 2026-05-05 07:26 | 48.25467 | 4.24891 | 21254 ft | 368 kts | 317° |
| 2026-05-05 07:26 | 48.27222 | 4.22108 | 21005 ft | 366 kts | 308° |
| 2026-05-05 07:26 | 48.28824 | 4.19191 | 20763 ft | 365 kts | 308° |
| 2026-05-05 07:27 | 48.30436 | 4.16249 | 20513 ft | 364 kts | 308° |
| 2026-05-05 07:27 | 48.32036 | 4.13320 | 20270 ft | 363 kts | 308° |
| 2026-05-05 07:27 | 48.33639 | 4.10389 | 20031 ft | 362 kts | 309° |
| 2026-05-05 07:27 | 48.35237 | 4.07472 | 19783 ft | 361 kts | 309° |
| 2026-05-05 07:28 | 48.36829 | 4.04569 | 19430 ft | 359 kts | 308° |
| 2026-05-05 07:28 | 48.38413 | 4.01680 | 19107 ft | 357 kts | 308° |
| 2026-05-05 07:28 | 48.39969 | 3.98839 | 18782 ft | 355 kts | 308° |
| 2026-05-05 07:28 | 48.41539 | 3.95966 | 18458 ft | 354 kts | 308° |
| 2026-05-05 07:29 | 48.43097 | 3.93111 | 18127 ft | 352 kts | 308° |
| 2026-05-05 07:29 | 48.44646 | 3.90262 | 17783 ft | 351 kts | 308° |
| 2026-05-05 07:29 | 48.46190 | 3.87416 | 17464 ft | 349 kts | 308° |
| 2026-05-05 07:29 | 48.47724 | 3.84586 | 17134 ft | 348 kts | 308° |
| 2026-05-05 07:30 | 48.49248 | 3.81775 | 16828 ft | 345 kts | 308° |
| 2026-05-05 07:30 | 48.52264 | 3.76205 | 16207 ft | 340 kts | 309° |
| 2026-05-05 07:30 | 48.53751 | 3.73444 | 15897 ft | 338 kts | 306° |
| 2026-05-05 07:31 | 48.55053 | 3.70503 | 15700 ft | 336 kts | 302° |
| 2026-05-05 07:31 | 48.56326 | 3.67540 | 15535 ft | 336 kts | 302° |
| 2026-05-05 07:31 | 48.57593 | 3.64591 | 15360 ft | 334 kts | 302° |
| 2026-05-05 07:31 | 48.58857 | 3.61651 | 15197 ft | 333 kts | 303° |
| 2026-05-05 07:32 | 48.60118 | 3.58716 | 14998 ft | 332 kts | 302° |
| 2026-05-05 07:32 | 48.61369 | 3.55799 | 14842 ft | 330 kts | 302° |
| 2026-05-05 07:32 | 48.62622 | 3.52878 | 14632 ft | 329 kts | 302° |
| 2026-05-05 07:32 | 48.63849 | 3.50011 | 14445 ft | 328 kts | 302° |
| 2026-05-05 07:33 | 48.65102 | 3.47076 | 14232 ft | 328 kts | 302° |
| 2026-05-05 07:33 | 48.66339 | 3.44179 | 14029 ft | 328 kts | 302° |
| 2026-05-05 07:33 | 48.67580 | 3.41273 | 13828 ft | 328 kts | 303° |
| 2026-05-05 07:33 | 48.68811 | 3.38382 | 13615 ft | 328 kts | 303° |
| 2026-05-05 07:34 | 48.70038 | 3.35501 | 13420 ft | 323 kts | 303° |
| 2026-05-05 07:34 | 48.71233 | 3.32695 | 13204 ft | 320 kts | 303° |
| 2026-05-05 07:34 | 48.72440 | 3.29861 | 13016 ft | 318 kts | 303° |
| 2026-05-05 07:34 | 48.73640 | 3.27044 | 12820 ft | 317 kts | 303° |
| 2026-05-05 07:35 | 48.74833 | 3.24233 | 12627 ft | 317 kts | 303° |
| 2026-05-05 07:35 | 48.76020 | 3.21432 | 12434 ft | 316 kts | 303° |
| 2026-05-05 07:35 | 48.77207 | 3.18624 | 12240 ft | 315 kts | 303° |
| 2026-05-05 07:35 | 48.78388 | 3.15828 | 12049 ft | 314 kts | 303° |
| 2026-05-05 07:36 | 48.79565 | 3.13039 | 11837 ft | 313 kts | 303° |
| 2026-05-05 07:36 | 48.80736 | 3.10260 | 11662 ft | 313 kts | 303° |
| 2026-05-05 07:36 | 48.81907 | 3.07476 | 11462 ft | 313 kts | 303° |
| 2026-05-05 07:36 | 48.83081 | 3.04687 | 11281 ft | 312 kts | 304° |
| 2026-05-05 07:37 | 48.84262 | 3.01930 | 11083 ft | 310 kts | 308° |
| 2026-05-05 07:37 | 48.85647 | 2.99435 | 10894 ft | 308 kts | 314° |
| 2026-05-05 07:37 | 48.87090 | 2.97054 | 10702 ft | 306 kts | 314° |
| 2026-05-05 07:37 | 48.88523 | 2.94676 | 10513 ft | 305 kts | 314° |
| 2026-05-05 07:38 | 48.89941 | 2.92321 | 10325 ft | 305 kts | 314° |
| 2026-05-05 07:38 | 48.91386 | 2.89918 | 10133 ft | 304 kts | 313° |
| 2026-05-05 07:38 | 48.92607 | 2.87364 | 9923 ft | 301 kts | 299° |
| 2026-05-05 07:38 | 48.93333 | 2.84408 | 9752 ft | 298 kts | 283° |
| 2026-05-05 07:39 | 48.93527 | 2.81283 | 9565 ft | 299 kts | 268° |
| 2026-05-05 07:39 | 48.93363 | 2.78121 | 9487 ft | 299 kts | 265° |
| 2026-05-05 07:39 | 48.93194 | 2.74972 | 9316 ft | 298 kts | 265° |
| 2026-05-05 07:39 | 48.93028 | 2.71829 | 9133 ft | 298 kts | 266° |
| 2026-05-05 07:40 | 48.92862 | 2.68693 | 8943 ft | 297 kts | 266° |
| 2026-05-05 07:40 | 48.92695 | 2.65559 | 8766 ft | 297 kts | 266° |
| 2026-05-05 07:40 | 48.92529 | 2.62428 | 8579 ft | 297 kts | 266° |
| 2026-05-05 07:40 | 48.92362 | 2.59297 | 8402 ft | 296 kts | 266° |
| 2026-05-05 07:41 | 48.92196 | 2.56176 | 8221 ft | 296 kts | 266° |
| 2026-05-05 07:41 | 48.92028 | 2.53074 | 8038 ft | 294 kts | 266° |
| 2026-05-05 07:41 | 48.91859 | 2.49990 | 7854 ft | 294 kts | 266° |
| 2026-05-05 07:41 | 48.91690 | 2.46923 | 7674 ft | 293 kts | 266° |
| 2026-05-05 07:42 | 48.91521 | 2.43846 | 7496 ft | 293 kts | 266° |
| 2026-05-05 07:42 | 48.91349 | 2.40766 | 7318 ft | 292 kts | 266° |
| 2026-05-05 07:42 | 48.91176 | 2.37713 | 7135 ft | 284 kts | 266° |
| 2026-05-05 07:42 | 48.91009 | 2.34782 | 6962 ft | 273 kts | 266° |
| 2026-05-05 07:43 | 48.90848 | 2.31955 | 6789 ft | 263 kts | 266° |
| 2026-05-05 07:43 | 48.90693 | 2.29232 | 6616 ft | 253 kts | 266° |
| 2026-05-05 07:43 | 48.90544 | 2.26616 | 6445 ft | 244 kts | 266° |
| 2026-05-05 07:43 | 48.90397 | 2.24064 | 6251 ft | 240 kts | 266° |
| 2026-05-05 07:44 | 48.90250 | 2.21541 | 6071 ft | 240 kts | 266° |
| 2026-05-05 07:44 | 48.90105 | 2.19026 | 5928 ft | 239 kts | 266° |
| 2026-05-05 07:44 | 48.89960 | 2.16504 | 5799 ft | 239 kts | 266° |
| 2026-05-05 07:44 | 48.89815 | 2.13991 | 5670 ft | 239 kts | 266° |
| 2026-05-05 07:45 | 48.89753 | 2.11484 | 5536 ft | 236 kts | 281° |
| 2026-05-05 07:45 | 48.90313 | 2.09192 | 5408 ft | 229 kts | 309° |
| 2026-05-05 07:45 | 48.91424 | 2.07568 | 5289 ft | 223 kts | 334° |
| 2026-05-05 07:45 | 48.92849 | 2.06814 | 5180 ft | 215 kts | 358° |
| 2026-05-05 07:46 | 48.94310 | 2.07007 | 5081 ft | 209 kts | 21° |
| 2026-05-05 07:46 | 48.95583 | 2.08069 | 5001 ft | 205 kts | 44° |
| 2026-05-05 07:46 | 48.96436 | 2.09749 | 5003 ft | 200 kts | 65° |
| 2026-05-05 07:46 | 48.96787 | 2.11709 | 5002 ft | 188 kts | 84° |
| 2026-05-05 07:47 | 48.96896 | 2.13677 | 5002 ft | 186 kts | 84° |
| 2026-05-05 07:47 | 48.97010 | 2.15639 | 5006 ft | 186 kts | 84° |
| 2026-05-05 07:47 | 48.97123 | 2.17597 | 4996 ft | 186 kts | 83° |
| 2026-05-05 07:47 | 48.97236 | 2.19562 | 5003 ft | 187 kts | 84° |
| 2026-05-05 07:48 | 48.97348 | 2.21531 | 4868 ft | 186 kts | 84° |
| 2026-05-05 07:48 | 48.97460 | 2.23491 | 4662 ft | 186 kts | 84° |
| 2026-05-05 07:48 | 48.97571 | 2.25448 | 4414 ft | 185 kts | 84° |
| 2026-05-05 07:48 | 48.97682 | 2.27396 | 4170 ft | 184 kts | 84° |
| 2026-05-05 07:49 | 48.97791 | 2.29337 | 3918 ft | 183 kts | 84° |
| 2026-05-05 07:49 | 48.97899 | 2.31270 | 3659 ft | 183 kts | 84° |
| 2026-05-05 07:49 | 48.98007 | 2.33201 | 3427 ft | 182 kts | 84° |
| 2026-05-05 07:49 | 48.98114 | 2.35114 | 3186 ft | 181 kts | 84° |
| 2026-05-05 07:50 | 48.98220 | 2.37022 | 2945 ft | 181 kts | 84° |
| 2026-05-05 07:50 | 48.98325 | 2.38905 | 2704 ft | 181 kts | 84° |
| 2026-05-05 07:50 | 48.98429 | 2.40795 | 2484 ft | 177 kts | 84° |
| 2026-05-05 07:50 | 48.98531 | 2.42632 | 2220 ft | 170 kts | 84° |
| 2026-05-05 07:51 | 48.98625 | 2.44345 | 1990 ft | 154 kts | 84° |
| 2026-05-05 07:51 | 48.98708 | 2.45869 | 1797 ft | 137 kts | 82° |
| 2026-05-05 07:51 | 48.98785 | 2.47276 | 1628 ft | 131 kts | 82° |
| 2026-05-05 07:51 | 48.98861 | 2.48653 | 1453 ft | 129 kts | 84° |
| 2026-05-05 07:52 | 48.98935 | 2.50013 | 1269 ft | 129 kts | 84° |
| 2026-05-05 07:52 | 48.99009 | 2.51369 | 1088 ft | 127 kts | 82° |
| 2026-05-05 07:52 | 48.99083 | 2.52730 | 896 ft | 130 kts | 82° |
| 2026-05-05 07:52 | 48.99156 | 2.54085 | 706 ft | 128 kts | 84° |
| 2026-05-05 07:53 | 48.99230 | 2.55441 | 555 ft | 130 kts | 83° |
| 2026-05-05 07:53 | 48.99302 | 2.56799 | 392 ft | 127 kts | 81° |
| 2026-05-05 07:53 | 48.99376 | 2.58020 | 353 ft | 97 kts | 85° |
| 2026-05-05 07:53 | 48.99414 | 2.58781 | 359 ft | 43 kts | 84° |
| 2026-05-05 07:54 | 48.99437 | 2.59092 | 357 ft | 27 kts | 82° |
| 2026-05-05 07:54 | 48.99497 | 2.59355 | 357 ft | 25 kts | 64° |
| 2026-05-05 07:54 | 48.99569 | 2.59587 | 356 ft | 21 kts | 65° |
| 2026-05-05 07:54 | 48.99651 | 2.59685 | 356 ft | 14 kts | 4° |
| 2026-05-05 07:55 | 48.99760 | 2.59678 | 354 ft | 17 kts | 356° |
| 2026-05-05 07:55 | 48.99887 | 2.59662 | 354 ft | 19 kts | 355° |
| 2026-05-05 07:55 | 49.00025 | 2.59646 | 354 ft | 21 kts | 356° |
| 2026-05-05 07:55 | 49.00176 | 2.59629 | 359 ft | 23 kts | 356° |
| 2026-05-05 07:56 | 49.00339 | 2.59611 | 354 ft | 24 kts | 356° |
| 2026-05-05 07:56 | 49.00512 | 2.59589 | 354 ft | 25 kts | 355° |
| 2026-05-05 07:56 | 49.00691 | 2.59567 | 358 ft | 26 kts | 355° |
| 2026-05-05 07:56 | 49.00851 | 2.59546 | 354 ft | 16 kts | 351° |
| 2026-05-05 07:57 | 49.00892 | 2.59414 | 361 ft | 13 kts | 277° |
| 2026-05-05 07:57 | 49.00884 | 2.59290 | 354 ft | 11 kts | 263° |
| 2026-05-05 07:57 | 49.00875 | 2.59153 | 360 ft | 16 kts | 264° |
| 2026-05-05 07:57 | 49.00867 | 2.58991 | 354 ft | 15 kts | 268° |
| 2026-05-05 07:58 | 49.00859 | 2.58842 | 354 ft | 14 kts | 264° |
| 2026-05-05 07:58 | 49.00851 | 2.58704 | 362 ft | 13 kts | 265° |
| 2026-05-05 07:58 | 49.00844 | 2.58577 | 354 ft | 11 kts | 265° |
| 2026-05-05 07:58 | 49.00836 | 2.58426 | 359 ft | 17 kts | 265° |
| 2026-05-05 07:59 | 49.00828 | 2.58255 | 354 ft | 14 kts | 266° |
| 2026-05-05 07:59 | 49.00824 | 2.58141 | 354 ft | 10 kts | 264° |
| 2026-05-05 07:59 | 49.00813 | 2.58037 | 357 ft | 11 kts | 262° |
| 2026-05-05 07:59 | 49.00802 | 2.57858 | 354 ft | 16 kts | 266° |
| 2026-05-05 08:00 | 49.00795 | 2.57699 | 354 ft | 14 kts | 266° |
| 2026-05-05 08:00 | 49.00788 | 2.57552 | 354 ft | 13 kts | 265° |
| 2026-05-05 08:00 | 49.00780 | 2.57416 | 358 ft | 12 kts | 265° |
| 2026-05-05 08:00 | 49.00772 | 2.57291 | 357 ft | 12 kts | 258° |
| 2026-05-05 08:01 | 49.00716 | 2.57229 | 358 ft | 10 kts | 184° |
| 2026-05-05 08:01 | 49.00650 | 2.57233 | 354 ft | 7 kts | 174° |
| 2026-05-05 08:01 | 49.00615 | 2.57258 | 359 ft | 4 kts | 114° |
| 2026-05-05 08:01 | 49.00617 | 2.57301 | 357 ft | 4 kts | 88° |
| 2026-05-05 08:02 | 49.00618 | 2.57328 | 354 ft | 0 kts | 87° |